Kaiser, MO

7:04 AM CDT on September 30, 2014 (GMT -0500)
Waynesville Regional At Forney Field | Change Station
CLOSE
Current Station
Airport
Location: Fort Leonard Wood,
Elevation: 1158 ft
Nearby Weather Stations

Elev 1158 ft 37.74 °N, 92.14 °W | Updated 6 minutes ago

Clear
Clear
57 °F
Feels Like 57 °F
N
5
Wind Variable Wind from SSE

Today
High -- | Low -- °F
--% Chance of Precip.
Yesterday
High -- | Low -- °F
Precip. -- in
7:05 AM 6:54 PM
Waxing Crescent, 36% visible
Pressure 29.96 in
Visibility 5.0 miles
Clouds Clear
Dew Point 57 °F
Humidity 99%
Rainfall 0.00 in
Snow Depth Not available.
UV 0 out of 12
Pollen 5.00 out of 12
Air Quality Not available.
Flu Activity Not available.
METAR KTBN 301158Z AUTO 15004KT 5SM BR CLR 14/14 A2997 RMK AO2 SLP146 T01380137 10166 20138 55004

More Conditions Fewer Conditions

Pressure 29.96 in
Visibility 5.0 miles
Clouds Clear
Dew Point 57 °F
Humidity 99%
Rainfall 0.00 in
Snow Depth Not available.
UV 0 out of 12
Pollen 5.00 out of 12
Air Quality Not available.
Flu Activity Not available.
METAR KTBN 301158Z AUTO 15004KT 5SM BR CLR 14/14 A2997 RMK AO2 SLP146 T01380137 10166 20138 55004

More Conditions Fewer Conditions

10-Day Weather Forecast

Almanac

Astronomy

Sep. 30, 2014 Rise Set
Actual Time 7:05 AM CDT 6:54 PM CDT
Civil Twilight 6:38 AM CDT 7:20 PM CDT
Nautical Twilight 6:08 AM CDT 7:51 PM CDT
Astronomical Twilight 5:37 AM CDT 8:22 PM CDT
Moon 1:09 PM CDT 11:29 PM CDT
Length of Visible Light 12h 42m
Length of Day
11h 49m
Tomorrow will be 2m 27s shorter.
Waxing Crescent, 36% of the Moon is Illuminated
Today
Waxing Crescent
Oct 1
First Quarter
Oct 8
Full
Oct 15
Last Quarter
Oct 23
New

Today's Extremes

State Highs State Lows

Community

WunderPhotos

Upload Photos

1,757,619 photos uploaded!

Nearby

Snow Depth

Station Depth Elevation
No new snow has been reported.

Earthquake Activity

City Distance Mag. Time & Date
No recent earthquake activity has been reported nearby.
Minimum magnitude displayed is 2.5.

Coastal Water Temperatures

Place Temperature
No Stations Reporting

Nearby Weather Stations